createdAt,value
2023-03-05T00:01:22.806Z,2.90
2023-03-05T00:03:52.442Z,2.80
2023-03-05T00:06:21.159Z,2.80
2023-03-05T00:08:49.489Z,2.90
2023-03-05T00:11:16.792Z,2.80
2023-03-05T00:13:44.417Z,2.90
2023-03-05T00:16:14.812Z,2.90
2023-03-05T00:18:43.114Z,2.80
2023-03-05T00:21:29.878Z,2.80
2023-03-05T00:23:58.139Z,2.90
2023-03-05T00:26:27.392Z,2.90
2023-03-05T00:28:56.108Z,2.90
2023-03-05T00:31:27.175Z,2.90
2023-03-05T00:33:56.054Z,2.90
2023-03-05T00:36:25.294Z,2.90
2023-03-05T00:38:53.379Z,2.90
2023-03-05T00:41:21.005Z,2.90
2023-03-05T00:43:48.932Z,2.90
2023-03-05T00:46:16.735Z,2.90
2023-03-05T00:48:44.366Z,2.90
2023-03-05T00:51:11.812Z,2.80
2023-03-05T00:53:39.208Z,2.90
2023-03-05T00:56:07.093Z,2.80
2023-03-05T00:58:34.421Z,2.80
2023-03-05T01:01:02.967Z,2.80
2023-03-05T01:03:31.872Z,2.80
2023-03-05T01:06:00.102Z,2.80
2023-03-05T01:08:27.540Z,2.80
2023-03-05T01:10:55.185Z,2.90
2023-03-05T01:13:22.899Z,2.80
2023-03-05T01:15:51.208Z,2.80
2023-03-05T01:18:20.930Z,2.80
2023-03-05T01:20:48.979Z,2.80
2023-03-05T01:23:16.313Z,2.80
2023-03-05T01:25:44.189Z,2.80
2023-03-05T01:28:11.749Z,2.90
2023-03-05T01:30:38.979Z,2.80
2023-03-05T01:33:06.221Z,2.80
2023-03-05T01:35:33.610Z,2.90
2023-03-05T01:38:01.093Z,2.80
2023-03-05T01:40:30.194Z,2.90
2023-03-05T01:43:22.978Z,2.80
2023-03-05T01:46:18.161Z,2.80
2023-03-05T01:48:49.694Z,2.80
2023-03-05T01:51:20.371Z,2.80
2023-03-05T01:53:48.083Z,2.80
2023-03-05T01:56:17.105Z,2.70
2023-03-05T01:58:45.026Z,2.70
2023-03-05T02:01:13.018Z,2.70
2023-03-05T02:03:41.750Z,2.70
2023-03-05T02:15:24.304Z,2.60
2023-03-05T02:17:51.800Z,2.60
2023-03-05T02:20:29.517Z,2.60
2023-03-05T02:22:57.528Z,2.70
2023-03-05T02:25:27.706Z,2.60
2023-03-05T02:28:17.056Z,2.60
2023-03-05T02:30:44.772Z,2.60
2023-03-05T02:33:14.599Z,2.60
2023-03-05T02:35:43.837Z,2.60
2023-03-05T02:38:15.210Z,2.70
2023-03-05T02:40:42.705Z,2.70
2023-03-05T02:43:11.053Z,2.60
2023-03-05T02:45:38.760Z,2.60
2023-03-05T02:48:06.337Z,2.70
2023-03-05T02:50:34.998Z,2.70
2023-03-05T02:53:03.222Z,2.70
2023-03-05T02:55:30.517Z,2.60
2023-03-05T02:58:00.210Z,2.60
2023-03-05T03:00:28.552Z,2.60
2023-03-05T03:02:56.237Z,2.60
2023-03-05T03:05:24.123Z,2.60
2023-03-05T03:07:52.051Z,2.60
2023-03-05T03:10:19.564Z,2.60
2023-03-05T03:12:47.042Z,2.60
2023-03-05T03:15:17.165Z,2.60
2023-03-05T03:17:45.340Z,2.60
2023-03-05T03:20:15.537Z,2.60
2023-03-05T03:22:44.186Z,2.60
2023-03-05T03:25:16.292Z,2.60
2023-03-05T03:27:43.534Z,2.60
2023-03-05T03:30:12.361Z,2.60
2023-03-05T03:32:39.972Z,2.60
2023-03-05T03:35:08.144Z,2.50
2023-03-05T03:37:35.611Z,2.50
2023-03-05T03:40:05.759Z,2.50
2023-03-05T03:42:33.708Z,2.60
2023-03-05T03:45:02.572Z,2.60
2023-03-05T03:47:31.055Z,2.60
2023-03-05T03:50:01.408Z,2.60
2023-03-05T03:52:28.814Z,2.60
2023-03-05T03:55:01.578Z,2.60
2023-03-05T03:57:30.640Z,2.60
2023-03-05T03:59:57.879Z,2.60
2023-03-05T04:02:26.221Z,2.60
2023-03-05T04:04:53.997Z,2.60
2023-03-05T04:07:21.261Z,2.60
2023-03-05T04:09:48.532Z,2.60
2023-03-05T04:12:18.306Z,2.60
2023-03-05T04:14:47.968Z,2.60
2023-03-05T04:17:16.416Z,2.60
2023-03-05T04:19:44.324Z,2.60
2023-03-05T04:22:16.336Z,2.60
2023-03-05T04:24:43.601Z,2.50
2023-03-05T04:27:11.401Z,2.50
2023-03-05T04:29:39.369Z,2.50
2023-03-05T04:32:07.246Z,2.50
2023-03-05T04:34:35.388Z,2.50
2023-03-05T04:37:02.652Z,2.50
2023-03-05T04:39:29.985Z,2.50
2023-03-05T04:41:57.215Z,2.50
2023-03-05T04:44:26.175Z,2.50
2023-03-05T04:46:53.411Z,2.60
2023-03-05T04:49:20.984Z,2.50
2023-03-05T04:51:48.530Z,2.50
2023-03-05T04:54:15.826Z,2.50
2023-03-05T04:56:43.079Z,2.50
2023-03-05T04:59:10.360Z,2.50
2023-03-05T05:01:37.650Z,2.50
2023-03-05T05:04:04.984Z,2.50
2023-03-05T05:06:32.181Z,2.50
2023-03-05T05:08:59.460Z,2.50
2023-03-05T05:11:26.762Z,2.50
2023-03-05T05:13:53.939Z,2.50
2023-03-05T05:16:21.224Z,2.50
2023-03-05T05:18:48.531Z,2.50
2023-03-05T05:21:16.137Z,2.40
2023-03-05T05:23:43.576Z,2.50
2023-03-05T05:26:14.426Z,2.50
2023-03-05T05:28:43.831Z,2.50
2023-03-05T05:31:12.869Z,2.50
2023-03-05T05:33:40.318Z,2.50
2023-03-05T05:36:10.772Z,2.50
2023-03-05T05:38:38.055Z,2.50
2023-03-05T05:41:07.875Z,2.50
2023-03-05T05:43:35.172Z,2.50
2023-03-05T05:46:07.241Z,2.50
2023-03-05T05:48:36.076Z,2.50
2023-03-05T05:51:12.419Z,2.50
2023-03-05T05:53:39.723Z,2.50
2023-03-05T05:56:09.250Z,2.50
2023-03-05T05:58:38.023Z,2.60
2023-03-05T06:01:29.384Z,2.60
2023-03-05T06:03:57.282Z,2.60
2023-03-05T06:06:26.291Z,2.60
2023-03-05T06:08:54.383Z,2.60
2023-03-05T06:11:21.949Z,2.60
2023-03-05T06:13:49.720Z,2.60
2023-03-05T06:16:20.221Z,2.60
2023-03-05T06:18:47.657Z,2.60
2023-03-05T06:21:17.680Z,2.60
2023-03-05T06:23:46.241Z,2.60
2023-03-05T06:26:16.482Z,2.60
2023-03-05T06:28:43.855Z,2.60
2023-03-05T06:31:14.045Z,2.60
2023-03-05T06:33:42.008Z,2.60
2023-03-05T06:36:11.336Z,2.60
2023-03-05T06:38:38.814Z,2.70
2023-03-05T06:41:12.098Z,2.60
2023-03-05T06:43:41.648Z,2.60
2023-03-05T06:46:16.423Z,2.60
2023-03-05T06:48:44.066Z,2.60
2023-03-05T06:51:17.394Z,2.60
2023-03-05T06:53:46.807Z,2.60
2023-03-05T06:56:16.875Z,2.60
2023-03-05T06:58:48.724Z,2.60
2023-03-05T07:01:15.854Z,2.60
2023-03-05T07:03:43.916Z,2.60
2023-03-05T07:06:13.610Z,2.60
2023-03-05T07:08:40.866Z,2.60
2023-03-05T07:11:19.845Z,2.60
2023-03-05T07:13:50.877Z,2.70
2023-03-05T07:16:21.513Z,2.70
2023-03-05T07:18:49.304Z,2.70
2023-03-05T07:21:19.676Z,2.80
2023-03-05T07:23:47.064Z,2.90
2023-03-05T07:26:14.787Z,2.80
2023-03-05T07:28:42.407Z,2.80
2023-03-05T07:31:14.126Z,2.90
2023-03-05T07:33:41.368Z,3.00
2023-03-05T07:36:09.270Z,3.20
2023-03-05T07:38:36.578Z,3.20
2023-03-05T07:41:05.334Z,3.20
2023-03-05T07:43:32.639Z,3.30
2023-03-05T07:45:59.982Z,3.30
2023-03-05T07:48:27.276Z,3.40
2023-03-05T07:51:10.944Z,3.50
2023-03-05T07:53:38.162Z,3.50
2023-03-05T07:56:05.914Z,3.60
2023-03-05T07:58:33.439Z,3.70
2023-03-05T08:01:00.625Z,3.80
2023-03-05T08:03:27.852Z,3.80
2023-03-05T08:05:55.040Z,3.80
2023-03-05T08:08:22.227Z,4.00
2023-03-05T08:10:49.402Z,4.00
2023-03-05T08:13:16.727Z,4.00
2023-03-05T08:15:44.144Z,4.00
2023-03-05T08:18:11.471Z,4.20
2023-03-05T08:20:38.656Z,4.30
2023-03-05T08:23:05.894Z,4.10
2023-03-05T08:25:33.206Z,4.20
2023-03-05T08:28:00.497Z,4.30
2023-03-05T08:30:27.828Z,4.30
2023-03-05T08:32:55.691Z,4.30
2023-03-05T08:35:23.547Z,4.40
2023-03-05T08:37:50.851Z,4.50
2023-03-05T08:40:18.295Z,4.50
2023-03-05T08:42:45.650Z,4.50
2023-03-05T08:45:13.527Z,4.30
2023-03-05T08:47:40.704Z,4.20
2023-03-05T08:50:08.608Z,4.20
2023-03-05T08:52:35.843Z,4.20
2023-03-05T08:55:03.688Z,3.90
2023-03-05T08:57:30.950Z,4.00
2023-03-05T08:59:58.155Z,4.00
2023-03-05T09:02:25.459Z,4.00
2023-03-05T09:04:52.713Z,4.10
2023-03-05T09:07:19.967Z,4.30
2023-03-05T09:09:47.188Z,4.20
2023-03-05T09:12:16.065Z,4.40
2023-03-05T09:14:43.362Z,4.40
2023-03-05T09:17:10.634Z,4.40
2023-03-05T09:19:37.930Z,4.40
2023-03-05T09:22:05.195Z,4.40
2023-03-05T09:24:32.617Z,4.50
2023-03-05T09:27:00.643Z,4.50
2023-03-05T09:29:29.618Z,4.40
2023-03-05T09:31:57.165Z,4.20
2023-03-05T09:34:24.604Z,4.20
2023-03-05T09:36:51.955Z,4.00
2023-03-05T09:39:19.249Z,4.00
2023-03-05T09:42:05.344Z,4.00
2023-03-05T09:44:57.469Z,4.00
2023-03-05T09:47:46.737Z,4.00
2023-03-05T09:50:42.151Z,3.90
2023-03-05T09:53:23.539Z,3.80
2023-03-05T09:55:58.851Z,3.70
2023-03-05T09:58:44.479Z,3.80
2023-03-05T10:01:38.930Z,3.80
2023-03-05T10:04:24.748Z,3.80
2023-03-05T10:07:08.999Z,3.70
2023-03-05T10:09:57.347Z,3.70
2023-03-05T10:12:28.079Z,3.60
2023-03-05T10:14:56.042Z,3.60
2023-03-05T10:17:35.317Z,3.60
2023-03-05T10:20:21.290Z,3.60
2023-03-05T10:23:21.040Z,3.40
2023-03-05T10:26:05.466Z,3.50
2023-03-05T10:29:03.436Z,3.70
2023-03-05T10:31:50.502Z,3.70
2023-03-05T10:34:32.709Z,3.90
2023-03-05T10:37:38.006Z,4.00
2023-03-05T10:40:25.933Z,4.20
2023-03-05T10:43:10.575Z,4.20
2023-03-05T10:45:49.899Z,4.40
2023-03-05T10:49:21.606Z,4.40
2023-03-05T10:52:13.623Z,4.50
2023-03-05T10:54:42.909Z,4.70
2023-03-05T10:57:12.717Z,4.70
2023-03-05T10:59:46.758Z,4.70
2023-03-05T11:02:13.978Z,4.60
2023-03-05T11:04:41.634Z,4.70
2023-03-05T11:07:14.911Z,4.90
2023-03-05T11:10:04.366Z,5.10
2023-03-05T11:12:37.107Z,4.90
2023-03-05T11:15:10.032Z,4.70
2023-03-05T11:17:49.090Z,4.80
2023-03-05T11:20:28.110Z,4.90
2023-03-05T11:23:20.162Z,4.90
2023-03-05T11:25:56.379Z,4.60
2023-03-05T11:28:37.838Z,4.70
2023-03-05T11:31:08.509Z,4.70
2023-03-05T11:33:37.822Z,4.60
2023-03-05T11:36:13.265Z,4.60
2023-03-05T11:39:07.593Z,4.60
2023-03-05T11:41:39.839Z,4.60
2023-03-05T11:44:19.654Z,4.70
2023-03-05T11:46:52.733Z,4.70
2023-03-05T11:49:24.525Z,5.00
2023-03-05T11:52:12.954Z,5.00
2023-03-05T11:55:16.788Z,4.90
2023-03-05T11:58:12.368Z,4.80
2023-03-05T12:00:45.409Z,4.60
2023-03-05T12:03:20.653Z,4.60
2023-03-05T12:06:02.053Z,4.60
2023-03-05T12:08:34.771Z,4.50
2023-03-05T12:11:09.532Z,4.30
2023-03-05T12:13:52.305Z,4.30
2023-03-05T12:16:43.961Z,4.40
2023-03-05T12:19:43.731Z,4.40
2023-03-05T12:22:21.053Z,4.50
2023-03-05T12:24:48.827Z,4.50
2023-03-05T12:27:32.666Z,4.50
2023-03-05T12:30:02.978Z,4.60
2023-03-05T12:32:31.653Z,4.80
2023-03-05T12:35:06.968Z,4.80
2023-03-05T12:37:34.128Z,4.90
2023-03-05T12:40:11.056Z,4.80
2023-03-05T12:42:38.182Z,4.90
2023-03-05T12:45:16.006Z,4.80
2023-03-05T12:47:48.244Z,4.80
2023-03-05T12:50:27.796Z,4.80
2023-03-05T12:52:54.940Z,4.80
2023-03-05T12:55:47.470Z,4.80
2023-03-05T12:58:33.088Z,4.80
2023-03-05T13:01:04.067Z,4.70
2023-03-05T13:03:36.631Z,4.60
2023-03-05T13:06:06.761Z,4.60
2023-03-05T13:08:37.994Z,4.70
2023-03-05T13:11:08.984Z,4.70
2023-03-05T13:13:41.656Z,4.70
2023-03-05T13:16:24.984Z,4.70
2023-03-05T13:18:54.161Z,4.60
2023-03-05T13:21:26.948Z,4.60
2023-03-05T13:23:58.880Z,4.60
2023-03-05T13:26:26.103Z,4.60
2023-03-05T13:29:16.566Z,4.60
2023-03-05T13:31:45.352Z,4.80
2023-03-05T13:34:23.373Z,4.90
2023-03-05T13:37:21.113Z,4.80
2023-03-05T13:39:54.547Z,4.70
2023-03-05T13:42:32.841Z,4.50
2023-03-05T13:45:06.787Z,4.50
2023-03-05T13:47:36.032Z,4.60
2023-03-05T13:50:11.771Z,4.50
2023-03-05T13:52:39.423Z,4.40
2023-03-05T13:55:15.002Z,4.50
2023-03-05T13:57:43.723Z,4.50
2023-03-05T14:00:30.858Z,4.50
2023-03-05T14:03:11.329Z,4.60
2023-03-05T14:05:43.641Z,4.50
2023-03-05T14:08:21.889Z,4.60
2023-03-05T14:10:49.920Z,4.50
2023-03-05T14:13:29.459Z,4.60
2023-03-05T14:16:24.282Z,4.60
2023-03-05T14:18:57.433Z,4.60
2023-03-05T14:21:25.601Z,4.50
2023-03-05T14:23:55.112Z,4.40
2023-03-05T14:26:31.639Z,4.40
2023-03-05T14:29:10.790Z,4.40
2023-03-05T14:31:50.042Z,4.50
2023-03-05T14:34:33.370Z,4.30
2023-03-05T14:37:04.533Z,4.30
2023-03-05T14:39:51.698Z,4.30
2023-03-05T14:42:24.479Z,4.30
2023-03-05T14:44:51.714Z,4.30
2023-03-05T14:47:19.004Z,4.20
2023-03-05T14:49:46.364Z,4.20
2023-03-05T14:52:19.289Z,4.30
2023-03-05T14:54:46.921Z,4.20
2023-03-05T14:57:27.819Z,4.20
2023-03-05T14:59:55.739Z,4.20
2023-03-05T15:02:26.032Z,4.10
2023-03-05T15:04:53.432Z,4.10
2023-03-05T15:07:29.157Z,4.10
2023-03-05T15:09:57.299Z,4.10
2023-03-05T15:12:24.883Z,4.10
2023-03-05T15:14:53.780Z,4.10
2023-03-05T15:17:22.824Z,4.10
2023-03-05T15:19:50.221Z,4.10
2023-03-05T15:22:17.991Z,4.00
2023-03-05T15:24:45.391Z,4.00
2023-03-05T15:27:12.907Z,4.10
2023-03-05T15:29:40.277Z,4.10
2023-03-05T15:32:08.108Z,4.10
2023-03-05T15:34:35.831Z,4.20
2023-03-05T15:37:04.201Z,4.10
2023-03-05T15:39:31.600Z,4.10
2023-03-05T15:41:59.061Z,4.00
2023-03-05T15:44:26.719Z,3.90
2023-03-05T15:46:54.299Z,3.70
2023-03-05T15:49:22.820Z,3.80
2023-03-05T15:51:50.772Z,3.90
2023-03-05T15:54:18.840Z,3.80
2023-03-05T15:56:46.170Z,3.80
2023-03-05T15:59:14.481Z,3.80
2023-03-05T16:01:48.086Z,3.80
2023-03-05T16:04:16.514Z,3.80
2023-03-05T16:06:48.361Z,3.80
2023-03-05T16:09:17.688Z,3.80
2023-03-05T16:11:48.133Z,3.80
2023-03-05T16:14:20.243Z,3.70
2023-03-05T16:16:47.556Z,3.60
2023-03-05T16:19:18.860Z,3.70
2023-03-05T16:21:46.733Z,3.80
2023-03-05T16:24:14.104Z,3.70
2023-03-05T16:26:42.676Z,3.70
2023-03-05T16:29:10.108Z,3.60
2023-03-05T16:31:43.210Z,3.60
2023-03-05T16:34:14.123Z,3.60
2023-03-05T16:36:47.867Z,3.60
2023-03-05T16:39:15.420Z,3.60
2023-03-05T16:41:42.854Z,3.60
2023-03-05T16:44:11.082Z,3.50
2023-03-05T16:46:39.120Z,3.40
2023-03-05T16:49:06.605Z,3.40
2023-03-05T16:51:33.996Z,3.40
2023-03-05T16:54:01.532Z,3.40
2023-03-05T16:56:28.862Z,3.40
2023-03-05T16:58:56.565Z,3.40
2023-03-05T17:01:24.622Z,3.40
2023-03-05T17:03:53.669Z,3.30
2023-03-05T17:06:28.194Z,3.30
2023-03-05T17:08:56.318Z,3.30
2023-03-05T17:11:25.922Z,3.30
2023-03-05T17:13:53.463Z,3.30
2023-03-05T17:16:21.367Z,3.20
2023-03-05T17:18:49.449Z,3.10
2023-03-05T17:21:16.991Z,3.10
2023-03-05T17:23:44.383Z,3.10
2023-03-05T17:26:17.903Z,3.10
2023-03-05T17:28:45.926Z,3.10
2023-03-05T17:31:14.483Z,3.10
2023-03-05T17:33:42.593Z,3.10
2023-03-05T17:36:18.414Z,3.00
2023-03-05T17:38:47.693Z,3.10
2023-03-05T17:41:16.532Z,3.10
2023-03-05T17:43:44.456Z,3.10
2023-03-05T17:46:12.584Z,3.10
2023-03-05T17:48:40.054Z,3.10
2023-03-05T17:51:08.594Z,3.10
2023-03-05T17:53:38.920Z,3.10
2023-03-05T17:56:14.018Z,3.10
2023-03-05T17:58:41.454Z,3.00
2023-03-05T18:01:09.589Z,3.00
2023-03-05T18:03:37.301Z,3.00
2023-03-05T18:06:05.182Z,2.90
2023-03-05T18:08:33.077Z,3.00
2023-03-05T18:11:00.379Z,3.00
2023-03-05T18:13:27.766Z,3.00
2023-03-05T18:15:59.696Z,3.10
2023-03-05T18:18:27.614Z,3.00
2023-03-05T18:20:55.072Z,3.10
2023-03-05T18:23:22.470Z,3.10
2023-03-05T18:25:49.647Z,3.00
2023-03-05T18:28:17.506Z,3.00
2023-03-05T18:30:46.371Z,3.00
2023-03-05T18:33:32.859Z,3.10
2023-03-05T18:36:00.360Z,3.10
2023-03-05T18:38:29.654Z,3.10
2023-03-05T18:40:57.540Z,3.00
2023-03-05T18:43:25.312Z,3.00
2023-03-05T18:45:54.807Z,3.00
2023-03-05T18:48:23.596Z,2.90
2023-03-05T18:50:54.456Z,2.90
2023-03-05T18:53:22.761Z,2.90
2023-03-05T18:55:52.560Z,3.00
2023-03-05T18:58:20.166Z,3.00
2023-03-05T19:00:48.099Z,2.90
2023-03-05T19:03:16.454Z,2.90
2023-03-05T19:05:43.976Z,2.90
2023-03-05T19:08:11.582Z,2.90
2023-03-05T19:10:39.437Z,2.90
2023-03-05T19:13:35.549Z,2.90
2023-03-05T19:16:20.086Z,3.00
2023-03-05T19:19:06.689Z,3.00
2023-03-05T19:21:34.205Z,2.80
2023-03-05T19:24:01.555Z,2.80
2023-03-05T19:26:28.785Z,2.80
2023-03-05T19:28:56.129Z,2.80
2023-03-05T19:31:23.561Z,2.80
2023-03-05T19:33:50.799Z,2.80
2023-03-05T19:36:18.168Z,2.80
2023-03-05T19:38:46.455Z,2.80
2023-03-05T19:41:17.036Z,2.80
2023-03-05T19:43:44.549Z,2.80
2023-03-05T19:46:11.749Z,2.80
2023-03-05T19:48:41.160Z,2.90
2023-03-05T19:51:19.759Z,2.90
2023-03-05T19:53:47.501Z,2.80
2023-03-05T19:56:16.511Z,2.80
2023-03-05T19:58:45.668Z,2.80
2023-03-05T20:01:17.476Z,2.80
2023-03-05T20:03:50.719Z,2.80
2023-03-05T20:06:18.436Z,2.80
2023-03-05T20:08:45.963Z,2.70
2023-03-05T20:11:15.470Z,2.70
2023-03-05T20:13:43.680Z,2.80
2023-03-05T20:16:23.669Z,2.80
2023-03-05T20:18:53.066Z,2.80
2023-03-05T20:21:23.336Z,2.80
2023-03-05T20:23:55.772Z,2.80
2023-03-05T20:26:25.915Z,2.80
2023-03-05T20:28:56.699Z,2.80
2023-03-05T20:31:26.507Z,2.70
2023-03-05T20:33:54.412Z,2.80
2023-03-05T20:36:22.206Z,2.80
2023-03-05T20:38:49.508Z,2.80
2023-03-05T20:41:20.865Z,2.70
2023-03-05T20:43:50.101Z,2.70
2023-03-05T20:46:23.392Z,2.70
2023-03-05T20:48:53.342Z,2.60
2023-03-05T20:51:26.745Z,2.60
2023-03-05T20:53:58.385Z,2.70
2023-03-05T20:56:28.032Z,2.70
2023-03-05T20:58:58.302Z,2.70
2023-03-05T21:01:27.028Z,2.70
2023-03-05T21:03:57.117Z,2.70
2023-03-05T21:06:26.440Z,2.70
2023-03-05T21:08:53.743Z,2.70
2023-03-05T21:11:21.683Z,2.70
2023-03-05T21:13:48.971Z,2.70
2023-03-05T21:16:19.760Z,2.70
2023-03-05T21:18:47.096Z,2.70
2023-03-05T21:21:14.590Z,2.60
2023-03-05T21:23:41.882Z,2.60
2023-03-05T21:26:09.183Z,2.60
2023-03-05T21:28:36.649Z,2.60
2023-03-05T21:31:09.578Z,2.60
2023-03-05T21:33:37.338Z,2.60
2023-03-05T21:36:05.249Z,2.60
2023-03-05T21:38:34.181Z,2.60
2023-03-05T21:41:02.775Z,2.60
2023-03-05T21:43:31.445Z,2.60
2023-03-05T21:46:01.061Z,2.60
2023-03-05T21:48:28.953Z,2.60
2023-03-05T21:50:57.411Z,2.60
2023-03-05T21:53:25.222Z,2.60
2023-03-05T21:55:59.447Z,2.60
2023-03-05T21:58:26.728Z,2.60
2023-03-05T22:00:54.007Z,2.50
2023-03-05T22:03:21.263Z,2.50
2023-03-05T22:05:48.930Z,2.50
2023-03-05T22:08:16.470Z,2.50
2023-03-05T22:10:43.616Z,2.60
2023-03-05T22:13:11.012Z,2.60
2023-03-05T22:15:58.090Z,2.60
2023-03-05T22:18:30.947Z,2.60
2023-03-05T22:20:59.241Z,2.50
2023-03-05T22:23:30.028Z,2.50
2023-03-05T22:26:02.671Z,2.50
2023-03-05T22:28:30.189Z,2.50
2023-03-05T22:30:57.470Z,2.50
2023-03-05T22:33:25.714Z,2.50
2023-03-05T22:35:52.985Z,2.50
2023-03-05T22:38:20.605Z,2.50
2023-03-05T22:40:49.461Z,2.50
2023-03-05T22:43:18.211Z,2.50
2023-03-05T22:45:46.153Z,2.50
2023-03-05T22:48:14.711Z,2.50
2023-03-05T22:50:44.032Z,2.50
2023-03-05T22:53:12.249Z,2.50
2023-03-05T22:55:42.871Z,2.60
2023-03-05T22:58:10.127Z,2.50
2023-03-05T23:00:38.102Z,2.50
2023-03-05T23:03:06.618Z,2.60
2023-03-05T23:05:34.719Z,2.40
2023-03-05T23:08:02.137Z,2.50
2023-03-05T23:10:29.569Z,2.50
2023-03-05T23:12:58.846Z,2.50
2023-03-05T23:15:28.305Z,2.40
2023-03-05T23:17:55.678Z,2.50
2023-03-05T23:20:25.989Z,2.50
2023-03-05T23:22:56.275Z,2.50
2023-03-05T23:25:26.569Z,2.40
2023-03-05T23:27:54.273Z,2.40
2023-03-05T23:30:26.084Z,2.40
2023-03-05T23:32:54.544Z,2.40
2023-03-05T23:35:46.823Z,2.40
2023-03-05T23:38:14.008Z,2.40
2023-03-05T23:40:44.352Z,2.40
2023-03-05T23:43:12.405Z,2.40
2023-03-05T23:45:42.376Z,2.40
2023-03-05T23:48:10.054Z,2.40
2023-03-05T23:50:40.628Z,2.40
2023-03-05T23:53:08.765Z,2.40
2023-03-05T23:55:41.614Z,2.40
2023-03-05T23:58:09.710Z,2.40
